sensor_id;sensor_type;location;lat;lon;timestamp;P1;durP1;ratioP1;P2;durP2;ratioP2
69034;SDS011;56091;55.756;37.412;2023-05-20T00:01:34;5.63;;;1.58;;
69034;SDS011;56091;55.756;37.412;2023-05-20T00:06:35;7.17;;;1.80;;
69034;SDS011;56091;55.756;37.412;2023-05-20T00:11:35;4.20;;;1.60;;
69034;SDS011;56091;55.756;37.412;2023-05-20T00:16:36;4.20;;;1.67;;
69034;SDS011;56091;55.756;37.412;2023-05-20T00:21:37;4.18;;;1.50;;
69034;SDS011;56091;55.756;37.412;2023-05-20T00:26:38;6.43;;;1.50;;
69034;SDS011;56091;55.756;37.412;2023-05-20T00:31:39;3.97;;;1.50;;
69034;SDS011;56091;55.756;37.412;2023-05-20T00:36:40;5.07;;;1.50;;
69034;SDS011;56091;55.756;37.412;2023-05-20T00:41:42;5.03;;;1.50;;
69034;SDS011;56091;55.756;37.412;2023-05-20T00:46:43;4.13;;;1.50;;
69034;SDS011;56091;55.756;37.412;2023-05-20T00:51:45;4.20;;;1.50;;
69034;SDS011;56091;55.756;37.412;2023-05-20T00:56:46;6.80;;;1.50;;
69034;SDS011;56091;55.756;37.412;2023-05-20T01:01:47;3.77;;;1.40;;
69034;SDS011;56091;55.756;37.412;2023-05-20T01:06:48;5.28;;;1.58;;
69034;SDS011;56091;55.756;37.412;2023-05-20T01:11:53;5.03;;;1.40;;
69034;SDS011;56091;55.756;37.412;2023-05-20T01:16:59;3.78;;;1.30;;
69034;SDS011;56091;55.756;37.412;2023-05-20T01:22:08;5.30;;;1.40;;
69034;SDS011;56091;55.756;37.412;2023-05-20T01:27:13;4.00;;;1.50;;
69034;SDS011;56091;55.756;37.412;2023-05-20T01:32:20;4.53;;;1.67;;
69034;SDS011;56091;55.756;37.412;2023-05-20T01:37:24;6.28;;;1.52;;
69034;SDS011;56091;55.756;37.412;2023-05-20T01:42:26;8.40;;;1.77;;
69034;SDS011;56091;55.756;37.412;2023-05-20T01:47:28;4.05;;;1.30;;
69034;SDS011;56091;55.756;37.412;2023-05-20T01:52:29;4.33;;;1.33;;
69034;SDS011;56091;55.756;37.412;2023-05-20T01:57:31;6.53;;;1.50;;
69034;SDS011;56091;55.756;37.412;2023-05-20T02:02:32;5.10;;;1.40;;
69034;SDS011;56091;55.756;37.412;2023-05-20T02:07:35;3.25;;;1.35;;
69034;SDS011;56091;55.756;37.412;2023-05-20T02:12:36;3.63;;;1.40;;
69034;SDS011;56091;55.756;37.412;2023-05-20T02:17:37;3.53;;;1.20;;
69034;SDS011;56091;55.756;37.412;2023-05-20T02:22:59;2.97;;;1.13;;
69034;SDS011;56091;55.756;37.412;2023-05-20T02:27:59;4.65;;;1.40;;
69034;SDS011;56091;55.756;37.412;2023-05-20T02:33:01;4.90;;;1.30;;
69034;SDS011;56091;55.756;37.412;2023-05-20T02:38:02;3.28;;;1.30;;
69034;SDS011;56091;55.756;37.412;2023-05-20T02:43:03;3.97;;;1.30;;
69034;SDS011;56091;55.756;37.412;2023-05-20T02:48:04;4.03;;;1.23;;
69034;SDS011;56091;55.756;37.412;2023-05-20T02:53:06;3.03;;;1.20;;
69034;SDS011;56091;55.756;37.412;2023-05-20T02:58:07;3.90;;;1.20;;
69034;SDS011;56091;55.756;37.412;2023-05-20T03:03:08;6.67;;;1.47;;
69034;SDS011;56091;55.756;37.412;2023-05-20T03:08:10;3.72;;;1.40;;
69034;SDS011;56091;55.756;37.412;2023-05-20T03:13:11;5.63;;;1.20;;
69034;SDS011;56091;55.756;37.412;2023-05-20T03:18:14;3.80;;;1.30;;
69034;SDS011;56091;55.756;37.412;2023-05-20T03:23:15;4.57;;;1.20;;
69034;SDS011;56091;55.756;37.412;2023-05-20T03:28:16;4.03;;;1.37;;
69034;SDS011;56091;55.756;37.412;2023-05-20T03:33:17;4.47;;;1.42;;
69034;SDS011;56091;55.756;37.412;2023-05-20T03:38:21;5.27;;;1.40;;
69034;SDS011;56091;55.756;37.412;2023-05-20T03:43:24;4.82;;;1.50;;
69034;SDS011;56091;55.756;37.412;2023-05-20T03:48:26;4.00;;;1.40;;
69034;SDS011;56091;55.756;37.412;2023-05-20T03:53:27;4.43;;;1.52;;
69034;SDS011;56091;55.756;37.412;2023-05-20T03:58:29;5.67;;;1.73;;
69034;SDS011;56091;55.756;37.412;2023-05-20T04:03:30;4.20;;;1.35;;
69034;SDS011;56091;55.756;37.412;2023-05-20T04:08:31;5.83;;;1.50;;
69034;SDS011;56091;55.756;37.412;2023-05-20T04:13:33;3.85;;;1.40;;
69034;SDS011;56091;55.756;37.412;2023-05-20T04:18:42;4.17;;;1.30;;
69034;SDS011;56091;55.756;37.412;2023-05-20T04:23:46;4.95;;;1.75;;
69034;SDS011;56091;55.756;37.412;2023-05-20T04:28:47;3.97;;;1.50;;
69034;SDS011;56091;55.756;37.412;2023-05-20T04:33:49;4.70;;;1.55;;
69034;SDS011;56091;55.756;37.412;2023-05-20T04:38:51;6.93;;;1.70;;
69034;SDS011;56091;55.756;37.412;2023-05-20T04:43:52;7.20;;;1.90;;
69034;SDS011;56091;55.756;37.412;2023-05-20T04:48:53;4.87;;;1.70;;
69034;SDS011;56091;55.756;37.412;2023-05-20T04:53:54;4.63;;;1.58;;
69034;SDS011;56091;55.756;37.412;2023-05-20T04:58:55;4.77;;;1.60;;
69034;SDS011;56091;55.756;37.412;2023-05-20T05:03:56;4.93;;;1.50;;
69034;SDS011;56091;55.756;37.412;2023-05-20T05:08:57;4.23;;;1.60;;
69034;SDS011;56091;55.756;37.412;2023-05-20T05:13:58;5.78;;;1.50;;
69034;SDS011;56091;55.756;37.412;2023-05-20T05:19:00;4.30;;;1.70;;
69034;SDS011;56091;55.756;37.412;2023-05-20T05:24:05;6.35;;;1.90;;
69034;SDS011;56091;55.756;37.412;2023-05-20T05:29:06;4.17;;;1.60;;
69034;SDS011;56091;55.756;37.412;2023-05-20T05:34:07;4.43;;;1.80;;
69034;SDS011;56091;55.756;37.412;2023-05-20T05:39:08;4.30;;;1.80;;
69034;SDS011;56091;55.756;37.412;2023-05-20T05:44:10;4.75;;;1.77;;
69034;SDS011;56091;55.756;37.412;2023-05-20T05:49:11;5.63;;;1.70;;
69034;SDS011;56091;55.756;37.412;2023-05-20T05:54:11;6.65;;;2.00;;
69034;SDS011;56091;55.756;37.412;2023-05-20T05:59:14;4.10;;;1.57;;
69034;SDS011;56091;55.756;37.412;2023-05-20T06:04:15;4.45;;;1.83;;
69034;SDS011;56091;55.756;37.412;2023-05-20T06:09:16;6.20;;;1.73;;
69034;SDS011;56091;55.756;37.412;2023-05-20T06:14:17;3.67;;;1.63;;
69034;SDS011;56091;55.756;37.412;2023-05-20T06:19:19;4.70;;;1.83;;
69034;SDS011;56091;55.756;37.412;2023-05-20T06:24:20;8.07;;;2.00;;
69034;SDS011;56091;55.756;37.412;2023-05-20T06:29:22;3.90;;;1.53;;
69034;SDS011;56091;55.756;37.412;2023-05-20T06:34:23;4.65;;;1.52;;
69034;SDS011;56091;55.756;37.412;2023-05-20T06:39:24;4.57;;;1.70;;
69034;SDS011;56091;55.756;37.412;2023-05-20T06:44:25;6.00;;;1.70;;
69034;SDS011;56091;55.756;37.412;2023-05-20T06:49:46;3.30;;;1.43;;
69034;SDS011;56091;55.756;37.412;2023-05-20T06:54:46;3.78;;;1.58;;
69034;SDS011;56091;55.756;37.412;2023-05-20T06:59:48;5.70;;;1.50;;
69034;SDS011;56091;55.756;37.412;2023-05-20T07:04:50;5.32;;;1.77;;
69034;SDS011;56091;55.756;37.412;2023-05-20T07:09:51;4.70;;;1.70;;
69034;SDS011;56091;55.756;37.412;2023-05-20T07:14:52;4.50;;;1.55;;
69034;SDS011;56091;55.756;37.412;2023-05-20T07:19:54;5.97;;;1.83;;
69034;SDS011;56091;55.756;37.412;2023-05-20T07:24:55;8.30;;;1.80;;
69034;SDS011;56091;55.756;37.412;2023-05-20T07:29:56;3.97;;;1.47;;
69034;SDS011;56091;55.756;37.412;2023-05-20T07:34:59;4.50;;;1.65;;
69034;SDS011;56091;55.756;37.412;2023-05-20T07:40:00;4.63;;;1.40;;
69034;SDS011;56091;55.756;37.412;2023-05-20T07:45:01;4.43;;;1.70;;
69034;SDS011;56091;55.756;37.412;2023-05-20T07:50:05;6.10;;;1.80;;
69034;SDS011;56091;55.756;37.412;2023-05-20T07:55:08;4.68;;;1.70;;
69034;SDS011;56091;55.756;37.412;2023-05-20T08:00:09;6.07;;;1.73;;
69034;SDS011;56091;55.756;37.412;2023-05-20T08:05:17;7.78;;;1.92;;
69034;SDS011;56091;55.756;37.412;2023-05-20T08:10:20;7.13;;;1.87;;
69034;SDS011;56091;55.756;37.412;2023-05-20T08:15:22;11.68;;;1.90;;
69034;SDS011;56091;55.756;37.412;2023-05-20T08:20:23;7.33;;;1.70;;
69034;SDS011;56091;55.756;37.412;2023-05-20T08:25:25;4.55;;;1.80;;
69034;SDS011;56091;55.756;37.412;2023-05-20T08:30:27;9.30;;;2.00;;
69034;SDS011;56091;55.756;37.412;2023-05-20T08:35:29;5.18;;;2.10;;
69034;SDS011;56091;55.756;37.412;2023-05-20T08:40:30;6.27;;;1.80;;
69034;SDS011;56091;55.756;37.412;2023-05-20T08:45:37;6.93;;;1.70;;
69034;SDS011;56091;55.756;37.412;2023-05-20T08:50:48;6.47;;;2.00;;
69034;SDS011;56091;55.756;37.412;2023-05-20T08:55:54;5.60;;;2.00;;
69034;SDS011;56091;55.756;37.412;2023-05-20T09:00:57;4.57;;;1.80;;
69034;SDS011;56091;55.756;37.412;2023-05-20T09:06:08;7.13;;;1.80;;
69034;SDS011;56091;55.756;37.412;2023-05-20T09:11:15;5.13;;;1.70;;
69034;SDS011;56091;55.756;37.412;2023-05-20T09:16:16;4.25;;;1.77;;
69034;SDS011;56091;55.756;37.412;2023-05-20T09:21:16;6.57;;;1.80;;
69034;SDS011;56091;55.756;37.412;2023-05-20T09:26:17;5.22;;;2.10;;
69034;SDS011;56091;55.756;37.412;2023-05-20T09:31:18;5.83;;;1.80;;
69034;SDS011;56091;55.756;37.412;2023-05-20T09:36:21;6.20;;;2.17;;
69034;SDS011;56091;55.756;37.412;2023-05-20T09:41:23;5.80;;;2.20;;
69034;SDS011;56091;55.756;37.412;2023-05-20T09:46:33;4.57;;;2.05;;
69034;SDS011;56091;55.756;37.412;2023-05-20T09:51:35;5.13;;;2.17;;
69034;SDS011;56091;55.756;37.412;2023-05-20T09:56:37;4.65;;;1.70;;
69034;SDS011;56091;55.756;37.412;2023-05-20T10:01:41;4.70;;;1.90;;
69034;SDS011;56091;55.756;37.412;2023-05-20T10:06:49;5.88;;;1.92;;
69034;SDS011;56091;55.756;37.412;2023-05-20T10:12:14;5.63;;;2.10;;
69034;SDS011;56091;55.756;37.412;2023-05-20T10:22:39;9.70;;;1.90;;
69034;SDS011;56091;55.756;37.412;2023-05-20T10:27:46;7.70;;;2.35;;
69034;SDS011;56091;55.756;37.412;2023-05-20T10:32:51;6.67;;;1.93;;
69034;SDS011;56091;55.756;37.412;2023-05-20T10:38:16;5.57;;;1.75;;
69034;SDS011;56091;55.756;37.412;2023-05-20T10:43:24;5.23;;;2.00;;
69034;SDS011;56091;55.756;37.412;2023-05-20T10:48:29;5.38;;;1.98;;
69034;SDS011;56091;55.756;37.412;2023-05-20T10:53:38;4.60;;;1.80;;
69034;SDS011;56091;55.756;37.412;2023-05-20T10:58:41;6.75;;;2.25;;
69034;SDS011;56091;55.756;37.412;2023-05-20T11:03:42;6.60;;;2.20;;
69034;SDS011;56091;55.756;37.412;2023-05-20T11:08:45;5.88;;;2.03;;
69034;SDS011;56091;55.756;37.412;2023-05-20T11:13:50;6.80;;;2.20;;
69034;SDS011;56091;55.756;37.412;2023-05-20T11:18:52;5.30;;;2.33;;
69034;SDS011;56091;55.756;37.412;2023-05-20T11:23:53;7.80;;;2.30;;
69034;SDS011;56091;55.756;37.412;2023-05-20T11:28:54;5.20;;;2.00;;
69034;SDS011;56091;55.756;37.412;2023-05-20T11:33:57;6.67;;;1.90;;
69034;SDS011;56091;55.756;37.412;2023-05-20T11:39:01;8.27;;;2.10;;
69034;SDS011;56091;55.756;37.412;2023-05-20T11:44:09;8.13;;;2.13;;
69034;SDS011;56091;55.756;37.412;2023-05-20T11:49:14;7.55;;;2.00;;
69034;SDS011;56091;55.756;37.412;2023-05-20T11:54:16;7.37;;;2.07;;
69034;SDS011;56091;55.756;37.412;2023-05-20T11:59:18;8.07;;;2.42;;
69034;SDS011;56091;55.756;37.412;2023-05-20T12:04:18;7.67;;;2.10;;
69034;SDS011;56091;55.756;37.412;2023-05-20T12:09:19;6.37;;;2.23;;
69034;SDS011;56091;55.756;37.412;2023-05-20T12:14:20;6.10;;;2.38;;
69034;SDS011;56091;55.756;37.412;2023-05-20T12:19:21;6.87;;;2.40;;
69034;SDS011;56091;55.756;37.412;2023-05-20T12:24:21;8.63;;;2.50;;
69034;SDS011;56091;55.756;37.412;2023-05-20T12:29:22;5.83;;;2.47;;
69034;SDS011;56091;55.756;37.412;2023-05-20T12:34:23;6.37;;;2.20;;
69034;SDS011;56091;55.756;37.412;2023-05-20T12:39:24;9.98;;;2.10;;
69034;SDS011;56091;55.756;37.412;2023-05-20T12:44:25;6.63;;;2.20;;
69034;SDS011;56091;55.756;37.412;2023-05-20T12:49:28;11.15;;;2.63;;
69034;SDS011;56091;55.756;37.412;2023-05-20T12:54:29;10.20;;;2.90;;
69034;SDS011;56091;55.756;37.412;2023-05-20T12:59:30;5.80;;;2.33;;
69034;SDS011;56091;55.756;37.412;2023-05-20T13:04:31;8.07;;;2.30;;
69034;SDS011;56091;55.756;37.412;2023-05-20T13:09:34;6.05;;;2.80;;
69034;SDS011;56091;55.756;37.412;2023-05-20T13:14:35;7.63;;;2.20;;
69034;SDS011;56091;55.756;37.412;2023-05-20T13:19:36;6.43;;;2.20;;
69034;SDS011;56091;55.756;37.412;2023-05-20T13:24:38;6.47;;;2.10;;
69034;SDS011;56091;55.756;37.412;2023-05-20T13:29:38;6.15;;;2.28;;
69034;SDS011;56091;55.756;37.412;2023-05-20T13:34:39;10.97;;;2.70;;
69034;SDS011;56091;55.756;37.412;2023-05-20T13:39:40;7.30;;;2.28;;
69034;SDS011;56091;55.756;37.412;2023-05-20T13:44:43;6.57;;;2.20;;
69034;SDS011;56091;55.756;37.412;2023-05-20T13:49:44;5.35;;;2.10;;
69034;SDS011;56091;55.756;37.412;2023-05-20T13:54:45;5.63;;;2.00;;
69034;SDS011;56091;55.756;37.412;2023-05-20T13:59:47;6.07;;;2.20;;
69034;SDS011;56091;55.756;37.412;2023-05-20T14:04:48;6.43;;;2.22;;
69034;SDS011;56091;55.756;37.412;2023-05-20T14:09:49;6.30;;;2.30;;
69034;SDS011;56091;55.756;37.412;2023-05-20T14:14:50;6.90;;;2.40;;
69034;SDS011;56091;55.756;37.412;2023-05-20T14:19:51;6.73;;;2.83;;
69034;SDS011;56091;55.756;37.412;2023-05-20T14:24:54;5.32;;;2.40;;
69034;SDS011;56091;55.756;37.412;2023-05-20T14:29:55;7.47;;;2.50;;
69034;SDS011;56091;55.756;37.412;2023-05-20T14:34:59;10.30;;;2.70;;
69034;SDS011;56091;55.756;37.412;2023-05-20T14:40:00;7.10;;;2.10;;
69034;SDS011;56091;55.756;37.412;2023-05-20T14:45:01;5.63;;;2.00;;
69034;SDS011;56091;55.756;37.412;2023-05-20T14:50:05;6.30;;;2.20;;
69034;SDS011;56091;55.756;37.412;2023-05-20T14:55:07;5.78;;;2.30;;
69034;SDS011;56091;55.756;37.412;2023-05-20T15:00:08;7.70;;;2.33;;
69034;SDS011;56091;55.756;37.412;2023-05-20T15:05:10;5.65;;;2.28;;
69034;SDS011;56091;55.756;37.412;2023-05-20T15:10:11;7.07;;;2.50;;
69034;SDS011;56091;55.756;37.412;2023-05-20T15:15:12;6.22;;;2.15;;
69034;SDS011;56091;55.756;37.412;2023-05-20T15:20:13;6.77;;;4.37;;
69034;SDS011;56091;55.756;37.412;2023-05-20T15:25:14;11.48;;;4.28;;
69034;SDS011;56091;55.756;37.412;2023-05-20T15:30:15;6.03;;;3.70;;
69034;SDS011;56091;55.756;37.412;2023-05-20T15:35:16;8.77;;;2.70;;
69034;SDS011;56091;55.756;37.412;2023-05-20T15:40:17;6.07;;;3.80;;
69034;SDS011;56091;55.756;37.412;2023-05-20T15:45:18;11.47;;;4.63;;
69034;SDS011;56091;55.756;37.412;2023-05-20T15:50:19;6.23;;;2.60;;
69034;SDS011;56091;55.756;37.412;2023-05-20T15:55:19;7.10;;;2.50;;
69034;SDS011;56091;55.756;37.412;2023-05-20T16:00:25;5.38;;;2.20;;
69034;SDS011;56091;55.756;37.412;2023-05-20T16:05:26;6.43;;;2.40;;
69034;SDS011;56091;55.756;37.412;2023-05-20T16:10:27;10.30;;;2.42;;
69034;SDS011;56091;55.756;37.412;2023-05-20T16:15:31;10.67;;;3.20;;
69034;SDS011;56091;55.756;37.412;2023-05-20T16:20:35;8.95;;;2.47;;
69034;SDS011;56091;55.756;37.412;2023-05-20T16:25:36;15.00;;;3.10;;
69034;SDS011;56091;55.756;37.412;2023-05-20T16:30:37;8.25;;;2.67;;
69034;SDS011;56091;55.756;37.412;2023-05-20T16:35:38;6.20;;;2.50;;
69034;SDS011;56091;55.756;37.412;2023-05-20T16:40:41;7.05;;;2.33;;
69034;SDS011;56091;55.756;37.412;2023-05-20T16:45:42;6.07;;;2.10;;
69034;SDS011;56091;55.756;37.412;2023-05-20T16:50:43;7.57;;;2.25;;
69034;SDS011;56091;55.756;37.412;2023-05-20T16:55:44;5.50;;;2.40;;
69034;SDS011;56091;55.756;37.412;2023-05-20T17:00:45;6.03;;;2.35;;
69034;SDS011;56091;55.756;37.412;2023-05-20T17:05:46;6.90;;;2.50;;
69034;SDS011;56091;55.756;37.412;2023-05-20T17:10:46;6.37;;;2.80;;
69034;SDS011;56091;55.756;37.412;2023-05-20T17:15:48;8.00;;;2.67;;
69034;SDS011;56091;55.756;37.412;2023-05-20T17:20:49;6.90;;;2.20;;
69034;SDS011;56091;55.756;37.412;2023-05-20T17:25:50;8.02;;;2.70;;
69034;SDS011;56091;55.756;37.412;2023-05-20T17:30:51;6.37;;;2.50;;
69034;SDS011;56091;55.756;37.412;2023-05-20T17:35:52;7.50;;;2.40;;
69034;SDS011;56091;55.756;37.412;2023-05-20T17:40:53;5.93;;;2.60;;
69034;SDS011;56091;55.756;37.412;2023-05-20T17:45:54;7.97;;;2.70;;
69034;SDS011;56091;55.756;37.412;2023-05-20T17:50:55;9.83;;;2.67;;
69034;SDS011;56091;55.756;37.412;2023-05-20T17:55:57;6.97;;;2.78;;
69034;SDS011;56091;55.756;37.412;2023-05-20T18:00:58;9.97;;;2.70;;
69034;SDS011;56091;55.756;37.412;2023-05-20T18:05:59;9.35;;;3.30;;
69034;SDS011;56091;55.756;37.412;2023-05-20T18:11:01;8.27;;;3.40;;
69034;SDS011;56091;55.756;37.412;2023-05-20T18:16:02;8.05;;;3.20;;
69034;SDS011;56091;55.756;37.412;2023-05-20T18:21:03;7.73;;;3.03;;
69034;SDS011;56091;55.756;37.412;2023-05-20T18:26:05;11.35;;;3.88;;
69034;SDS011;56091;55.756;37.412;2023-05-20T18:31:08;9.23;;;3.63;;
69034;SDS011;56091;55.756;37.412;2023-05-20T18:36:12;13.20;;;4.10;;
69034;SDS011;56091;55.756;37.412;2023-05-20T18:41:13;12.77;;;4.93;;
69034;SDS011;56091;55.756;37.412;2023-05-20T18:46:14;8.97;;;3.80;;
69034;SDS011;56091;55.756;37.412;2023-05-20T18:51:15;9.02;;;4.20;;
69034;SDS011;56091;55.756;37.412;2023-05-20T18:56:16;8.47;;;4.20;;
69034;SDS011;56091;55.756;37.412;2023-05-20T19:01:16;10.40;;;4.10;;
69034;SDS011;56091;55.756;37.412;2023-05-20T19:06:18;7.70;;;3.87;;
69034;SDS011;56091;55.756;37.412;2023-05-20T19:11:19;9.18;;;4.18;;
69034;SDS011;56091;55.756;37.412;2023-05-20T19:16:20;9.67;;;4.00;;
69034;SDS011;56091;55.756;37.412;2023-05-20T19:21:21;10.90;;;4.55;;
69034;SDS011;56091;55.756;37.412;2023-05-20T19:26:23;10.03;;;4.87;;
69034;SDS011;56091;55.756;37.412;2023-05-20T19:31:25;9.13;;;5.22;;
69034;SDS011;56091;55.756;37.412;2023-05-20T19:36:26;10.10;;;4.67;;
69034;SDS011;56091;55.756;37.412;2023-05-20T19:41:26;11.35;;;5.22;;
69034;SDS011;56091;55.756;37.412;2023-05-20T19:46:27;9.87;;;5.17;;
69034;SDS011;56091;55.756;37.412;2023-05-20T19:51:28;12.40;;;5.47;;
69034;SDS011;56091;55.756;37.412;2023-05-20T19:56:29;12.10;;;5.80;;
69034;SDS011;56091;55.756;37.412;2023-05-20T20:01:30;11.90;;;5.38;;
69034;SDS011;56091;55.756;37.412;2023-05-20T20:06:31;12.83;;;6.63;;
69034;SDS011;56091;55.756;37.412;2023-05-20T20:11:32;14.57;;;8.30;;
69034;SDS011;56091;55.756;37.412;2023-05-20T20:16:32;12.73;;;6.50;;
69034;SDS011;56091;55.756;37.412;2023-05-20T20:21:34;14.00;;;6.17;;
69034;SDS011;56091;55.756;37.412;2023-05-20T20:26:35;10.30;;;5.18;;
69034;SDS011;56091;55.756;37.412;2023-05-20T20:31:36;12.90;;;5.97;;
69034;SDS011;56091;55.756;37.412;2023-05-20T20:36:37;12.73;;;6.18;;
69034;SDS011;56091;55.756;37.412;2023-05-20T20:41:38;9.90;;;5.40;;
69034;SDS011;56091;55.756;37.412;2023-05-20T20:46:44;14.27;;;6.43;;
69034;SDS011;56091;55.756;37.412;2023-05-20T20:51:45;16.47;;;6.67;;
69034;SDS011;56091;55.756;37.412;2023-05-20T20:56:47;11.35;;;6.55;;
69034;SDS011;56091;55.756;37.412;2023-05-20T21:01:49;12.10;;;5.83;;
69034;SDS011;56091;55.756;37.412;2023-05-20T21:06:52;15.45;;;6.80;;
69034;SDS011;56091;55.756;37.412;2023-05-20T21:11:52;17.10;;;6.13;;
69034;SDS011;56091;55.756;37.412;2023-05-20T21:16:56;12.90;;;6.18;;
69034;SDS011;56091;55.756;37.412;2023-05-20T21:21:57;19.97;;;6.83;;
69034;SDS011;56091;55.756;37.412;2023-05-20T21:26:57;12.57;;;6.13;;
69034;SDS011;56091;55.756;37.412;2023-05-20T21:31:58;15.10;;;6.13;;
69034;SDS011;56091;55.756;37.412;2023-05-20T21:36:59;11.23;;;6.13;;
69034;SDS011;56091;55.756;37.412;2023-05-20T21:42:00;10.40;;;5.88;;
69034;SDS011;56091;55.756;37.412;2023-05-20T21:47:01;11.97;;;5.63;;
69034;SDS011;56091;55.756;37.412;2023-05-20T21:52:01;12.07;;;6.28;;
69034;SDS011;56091;55.756;37.412;2023-05-20T21:57:05;11.90;;;6.37;;
69034;SDS011;56091;55.756;37.412;2023-05-20T22:02:05;11.65;;;6.65;;
69034;SDS011;56091;55.756;37.412;2023-05-20T22:07:06;12.80;;;6.60;;
69034;SDS011;56091;55.756;37.412;2023-05-20T22:12:07;10.60;;;4.50;;
69034;SDS011;56091;55.756;37.412;2023-05-20T22:17:10;13.77;;;6.03;;
69034;SDS011;56091;55.756;37.412;2023-05-20T22:22:11;12.93;;;5.93;;
69034;SDS011;56091;55.756;37.412;2023-05-20T22:27:11;14.48;;;6.60;;
69034;SDS011;56091;55.756;37.412;2023-05-20T22:32:12;11.43;;;5.77;;
69034;SDS011;56091;55.756;37.412;2023-05-20T22:37:13;13.68;;;6.75;;
69034;SDS011;56091;55.756;37.412;2023-05-20T22:42:15;11.47;;;5.93;;
69034;SDS011;56091;55.756;37.412;2023-05-20T22:47:16;12.43;;;6.45;;
69034;SDS011;56091;55.756;37.412;2023-05-20T22:52:16;12.50;;;5.83;;
69034;SDS011;56091;55.756;37.412;2023-05-20T22:57:17;16.30;;;7.38;;
69034;SDS011;56091;55.756;37.412;2023-05-20T23:02:18;15.90;;;7.80;;
69034;SDS011;56091;55.756;37.412;2023-05-20T23:07:19;14.65;;;8.15;;
69034;SDS011;56091;55.756;37.412;2023-05-20T23:12:21;18.50;;;9.13;;
69034;SDS011;56091;55.756;37.412;2023-05-20T23:17:22;19.38;;;8.65;;
69034;SDS011;56091;55.756;37.412;2023-05-20T23:22:23;13.93;;;7.80;;
69034;SDS011;56091;55.756;37.412;2023-05-20T23:27:23;18.57;;;7.47;;
69034;SDS011;56091;55.756;37.412;2023-05-20T23:32:27;15.90;;;8.05;;
69034;SDS011;56091;55.756;37.412;2023-05-20T23:37:28;14.10;;;7.07;;
69034;SDS011;56091;55.756;37.412;2023-05-20T23:42:29;13.80;;;7.35;;
69034;SDS011;56091;55.756;37.412;2023-05-20T23:47:31;12.23;;;6.33;;
69034;SDS011;56091;55.756;37.412;2023-05-20T23:52:35;13.05;;;7.05;;
69034;SDS011;56091;55.756;37.412;2023-05-20T23:57:36;15.60;;;7.53;;
